Time;durP1;ratioP1;P1;durP2;ratioP2;P2;SDS_P1;SDS_P2;PMS_P1;PMS_P2;Temp;Humidity;BMP_temperature;BMP_pressure;BME280_temperature;BME280_humidity;BME280_pressure;Samples;Min_cycle;Max_cycle;Signal;HPM_P1;HPM_P2
2022/04/16 00:01:24;;;;;;;;;0.00;0.00;18.80;99.90;;;;;;5059384;28;9064;-39
2022/04/16 00:03:58;;;;;;;;;0.00;0.00;18.80;99.90;;;;;;5069140;28;8844;-47
2022/04/16 00:06:29;;;;;;;;;0.00;0.00;18.80;99.90;;;;;;5075799;28;8932;-46
2022/04/16 00:09:00;;;;;;;;;0.00;0.00;18.70;99.90;;;;;;5081040;28;8990;-49
2022/04/16 00:11:31;;;;;;;;;0.00;0.00;18.60;99.90;;;;;;5084031;28;9061;-52
2022/04/16 00:14:03;;;;;;;;;0.00;0.00;18.60;99.90;;;;;;5085134;28;9179;-46
2022/04/16 00:16:34;;;;;;;;;3.00;0.00;18.50;99.90;;;;;;5078757;28;9201;-47
2022/04/16 00:19:04;;;;;;;;;0.00;0.00;18.50;99.90;;;;;;5086449;28;9260;-48
2022/04/16 00:21:35;;;;;;;;;0.00;0.00;18.40;99.90;;;;;;5085487;28;9721;-47
2022/04/16 00:24:07;;;;;;;;;0.00;0.00;18.30;99.90;;;;;;5074641;28;9300;-47
2022/04/16 00:26:40;;;;;;;;;0.00;0.00;18.30;99.90;;;;;;5075457;28;9331;-50
2022/04/16 00:29:12;;;;;;;;;0.00;0.00;18.20;99.90;;;;;;5078564;28;9376;-39
2022/04/16 00:31:45;;;;;;;;;0.00;0.00;18.20;99.90;;;;;;5072807;28;9224;-39
2022/04/16 00:34:15;;;;;;;;;0.00;0.00;18.20;99.90;;;;;;5075745;28;10281;-38
2022/04/16 00:36:47;;;;;;;;;2.00;0.00;18.20;99.90;;;;;;5080596;28;9451;-41
2022/04/16 00:39:17;;;;;;;;;0.00;0.00;18.30;99.90;;;;;;5085077;28;9450;-48
2022/04/16 00:41:50;;;;;;;;;0.00;0.00;18.20;99.90;;;;;;5081643;28;9374;-51
2022/04/16 00:44:23;;;;;;;;;0.00;0.00;18.20;99.90;;;;;;5081959;28;9550;-49
2022/04/16 00:46:56;;;;;;;;;0.00;0.00;18.10;99.90;;;;;;5074124;28;9517;-51
2022/04/16 00:49:26;;;;;;;;;0.00;0.00;18.10;99.90;;;;;;5080514;28;9495;-46
2022/04/16 00:51:57;;;;;;;;;0.00;0.00;17.90;99.90;;;;;;5090779;28;9573;-50
2022/04/16 00:54:29;;;;;;;;;1.00;0.00;17.80;99.90;;;;;;5079065;27;9551;-48
2022/04/16 00:57:00;;;;;;;;;0.00;0.00;17.80;99.90;;;;;;5089445;28;9608;-47
2022/04/16 00:59:30;;;;;;;;;0.00;0.00;17.80;99.90;;;;;;5073116;28;9740;-39
2022/04/16 01:02:03;;;;;;;;;0.00;0.00;17.80;99.90;;;;;;5078900;28;9734;-40
2022/04/16 01:04:35;;;;;;;;;0.00;0.00;17.70;99.90;;;;;;5077938;27;9891;-39
2022/04/16 01:07:07;;;;;;;;;0.00;0.00;17.70;99.90;;;;;;5081529;28;9880;-40
2022/04/16 01:09:37;;;;;;;;;0.00;0.00;17.60;99.90;;;;;;5080047;28;9734;-39
2022/04/16 01:12:10;;;;;;;;;0.00;0.00;17.40;99.90;;;;;;5084932;28;9821;-39
2022/04/16 01:14:43;;;;;;;;;0.25;0.00;17.40;99.90;;;;;;5078770;28;9987;-40
2022/04/16 01:17:15;;;;;;;;;0.25;0.25;17.40;99.90;;;;;;5097997;28;10386;-40
2022/04/16 01:19:47;;;;;;;;;1.00;1.00;17.40;99.90;;;;;;5082159;28;10038;-40
2022/04/16 01:22:20;;;;;;;;;0.00;0.00;17.30;99.90;;;;;;5087084;28;10506;-40
2022/04/16 01:24:51;;;;;;;;;0.00;0.00;17.30;99.90;;;;;;5083562;28;10136;-47
2022/04/16 01:27:22;;;;;;;;;0.00;0.00;17.20;99.90;;;;;;5086538;28;10149;-48
2022/04/16 01:29:53;;;;;;;;;0.25;0.25;17.20;99.90;;;;;;5080870;28;10117;-40
2022/04/16 01:32:25;;;;;;;;;2.00;1.25;17.20;99.90;;;;;;5080766;28;10288;-40
2022/04/16 01:34:56;;;;;;;;;3.50;3.50;17.20;99.90;;;;;;5082855;28;10430;-49
2022/04/16 01:37:33;;;;;;;;;10.00;10.00;17.00;99.90;;;;;;5089749;28;10628;-48
2022/04/16 01:40:08;;;;;;;;;14.00;14.00;16.80;99.90;;;;;;5083242;28;10809;-49
2022/04/16 01:42:39;;;;;;;;;14.25;14.25;16.90;99.90;;;;;;5081414;28;11803;-48
2022/04/16 01:45:11;;;;;;;;;17.00;17.00;16.90;99.90;;;;;;5086167;28;11156;-48
2022/04/16 01:47:43;;;;;;;;;13.75;13.75;16.90;99.90;;;;;;5077262;28;11116;-50
2022/04/16 01:50:14;;;;;;;;;8.00;8.00;16.90;99.90;;;;;;5089567;28;11045;-46
2022/04/16 01:52:46;;;;;;;;;4.50;4.50;16.80;99.90;;;;;;5085842;28;10925;-38
2022/04/16 01:55:16;;;;;;;;;2.00;2.00;16.90;99.90;;;;;;5087873;28;10874;-40
2022/04/16 01:57:47;;;;;;;;;1.75;1.75;16.90;99.90;;;;;;5083641;28;10685;-47
2022/04/16 02:00:19;;;;;;;;;4.00;3.00;16.90;99.90;;;;;;5071141;28;10918;-47
2022/04/16 02:02:50;;;;;;;;;2.25;2.25;16.90;99.90;;;;;;5080035;28;10992;-39
2022/04/16 02:05:22;;;;;;;;;0.00;0.00;16.90;99.90;;;;;;5074817;28;10900;-38
2022/04/16 02:07:54;;;;;;;;;1.00;0.00;16.70;99.90;;;;;;5084364;28;10518;-39
2022/04/16 02:10:28;;;;;;;;;0.00;0.00;16.60;99.90;;;;;;5073662;28;10346;-38
2022/04/16 02:13:00;;;;;;;;;0.75;0.25;16.60;99.90;;;;;;5077221;28;10197;-38
2022/04/16 02:15:32;;;;;;;;;0.00;0.00;16.60;99.90;;;;;;5071276;28;10417;-40
2022/04/16 02:18:01;;;;;;;;;0.50;0.00;16.60;99.90;;;;;;5070873;28;10236;-40
2022/04/16 02:20:32;;;;;;;;;0.00;0.00;16.60;99.90;;;;;;5079921;28;10447;-39
2022/04/16 02:23:04;;;;;;;;;0.00;0.00;16.50;99.90;;;;;;5086293;28;10230;-39
2022/04/16 02:25:34;;;;;;;;;0.00;0.00;16.50;99.90;;;;;;5079030;28;10272;-41
2022/04/16 02:28:06;;;;;;;;;0.25;0.25;16.50;99.90;;;;;;5073978;28;10152;-40
2022/04/16 02:30:37;;;;;;;;;0.00;0.00;16.40;99.90;;;;;;5079698;28;10510;-39
2022/04/16 02:33:10;;;;;;;;;0.00;0.00;16.40;99.90;;;;;;5076385;28;10356;-39
2022/04/16 02:35:41;;;;;;;;;0.00;0.00;16.30;99.90;;;;;;5083144;28;10487;-40
2022/04/16 02:38:11;;;;;;;;;0.00;0.00;16.30;99.90;;;;;;5078649;28;10322;-39
2022/04/16 02:40:43;;;;;;;;;2.00;0.00;16.30;99.90;;;;;;5081073;28;10347;-39
2022/04/16 02:43:14;;;;;;;;;0.00;0.00;16.40;99.90;;;;;;5087499;28;10430;-48
2022/04/16 02:48:36;;;;;;;;;0.00;0.00;16.30;99.90;;;;;;5076232;28;10465;-39
2022/04/16 02:51:08;;;;;;;;;0.75;0.75;16.30;99.90;;;;;;5077805;28;10645;-39
2022/04/16 02:53:38;;;;;;;;;0.00;0.00;16.30;99.90;;;;;;5079653;28;10377;-49
2022/04/16 02:56:08;;;;;;;;;0.00;0.00;16.20;99.90;;;;;;5073824;28;11109;-47
2022/04/16 02:58:39;;;;;;;;;0.00;0.00;16.10;99.90;;;;;;5079968;28;10324;-51
2022/04/16 03:01:11;;;;;;;;;0.00;0.00;16.20;99.90;;;;;;5075283;28;10622;-46
2022/04/16 03:03:42;;;;;;;;;0.00;0.00;16.10;99.90;;;;;;5078118;28;10680;-38
2022/04/16 03:06:13;;;;;;;;;0.00;0.00;16.10;99.90;;;;;;5083105;28;11402;-39
2022/04/16 03:08:43;;;;;;;;;0.00;0.00;16.10;99.90;;;;;;5082809;28;10588;-43
2022/04/16 03:11:12;;;;;;;;;0.00;0.00;16.10;99.90;;;;;;5069075;28;11263;-38
2022/04/16 03:13:43;;;;;;;;;0.00;0.00;16.00;99.90;;;;;;5076124;28;10493;-50
2022/04/16 03:19:04;;;;;;;;;1.00;1.00;16.10;99.90;;;;;;5074559;28;10545;-38
2022/04/16 03:21:36;;;;;;;;;0.00;0.00;16.00;99.90;;;;;;5068688;28;10633;-39
2022/04/16 03:24:07;;;;;;;;;0.00;0.00;16.00;99.90;;;;;;5078335;28;10691;-48
2022/04/16 03:26:37;;;;;;;;;1.00;1.00;16.00;99.90;;;;;;5074444;28;10674;-50
2022/04/16 03:29:07;;;;;;;;;0.00;0.00;16.00;99.90;;;;;;5083310;28;10592;-37
2022/04/16 03:31:39;;;;;;;;;0.00;0.00;16.00;99.90;;;;;;5065892;28;10648;-37
2022/04/16 03:34:08;;;;;;;;;0.00;0.00;16.00;99.90;;;;;;5077922;28;11233;-40
2022/04/16 03:36:39;;;;;;;;;0.00;0.00;15.90;99.90;;;;;;5073217;28;10546;-38
2022/04/16 03:39:09;;;;;;;;;0.00;0.00;15.90;99.90;;;;;;5082418;28;10490;-49
2022/04/16 03:41:39;;;;;;;;;0.00;0.00;15.90;99.90;;;;;;5081023;28;10640;-47
2022/04/16 03:44:10;;;;;;;;;0.00;0.00;15.90;99.90;;;;;;5077425;28;10665;-39
2022/04/16 03:46:42;;;;;;;;;0.00;0.00;15.90;99.90;;;;;;5081120;28;11191;-38
2022/04/16 03:49:14;;;;;;;;;0.00;0.00;15.90;99.90;;;;;;5078131;28;11247;-48
2022/04/16 03:51:46;;;;;;;;;0.50;0.50;15.80;99.90;;;;;;5081090;28;10604;-47
2022/04/16 04:00:05;;;;;;;;;0.00;0.00;15.80;99.90;;;;;;5075094;28;10753;-47
2022/04/16 04:02:41;;;;;;;;;0.00;0.00;15.80;99.90;;;;;;5077076;28;10719;-47
2022/04/16 04:05:12;;;;;;;;;0.00;0.00;15.80;99.90;;;;;;5081164;28;11497;-47
2022/04/16 04:07:42;;;;;;;;;1.00;1.00;15.80;99.90;;;;;;5076113;28;10643;-48
2022/04/16 04:10:13;;;;;;;;;1.00;1.00;15.80;99.90;;;;;;5084240;28;10637;-38
2022/04/16 04:12:44;;;;;;;;;0.00;0.00;15.70;99.90;;;;;;5076533;28;10754;-48
2022/04/16 04:15:14;;;;;;;;;0.00;0.00;15.70;99.90;;;;;;5076852;28;10409;-51
2022/04/16 04:17:45;;;;;;;;;0.50;0.50;15.70;99.90;;;;;;5079828;28;11389;-46
2022/04/16 04:20:16;;;;;;;;;0.00;0.00;15.70;99.90;;;;;;5086647;28;10677;-51
2022/04/16 04:22:47;;;;;;;;;0.50;0.50;15.60;99.90;;;;;;5073688;28;10640;-47
2022/04/16 04:25:18;;;;;;;;;0.00;0.00;15.60;99.90;;;;;;5085355;28;10498;-50
2022/04/16 04:27:48;;;;;;;;;0.00;0.00;15.60;99.90;;;;;;5082610;28;11166;-50
2022/04/16 04:30:19;;;;;;;;;0.75;0.75;15.60;99.90;;;;;;5088255;28;11349;-47
2022/04/16 04:32:51;;;;;;;;;0.00;0.00;15.60;99.90;;;;;;5079177;28;10742;-47
2022/04/16 04:35:22;;;;;;;;;0.75;0.75;15.60;99.90;;;;;;5084525;28;10480;-50
2022/04/16 04:37:52;;;;;;;;;1.00;1.00;15.60;99.90;;;;;;5086166;28;11474;-39
2022/04/16 04:40:23;;;;;;;;;0.00;0.00;15.60;99.90;;;;;;5083622;28;10813;-39
2022/04/16 04:42:54;;;;;;;;;0.00;0.00;15.60;99.90;;;;;;5087621;28;10577;-49
2022/04/16 04:45:24;;;;;;;;;1.00;1.00;15.60;99.90;;;;;;5080275;28;10571;-47
2022/04/16 04:47:55;;;;;;;;;1.00;1.00;15.60;99.90;;;;;;5075443;28;10831;-38
2022/04/16 04:50:26;;;;;;;;;0.00;0.00;15.60;99.90;;;;;;5078242;28;11342;-39
2022/04/16 04:52:57;;;;;;;;;0.00;0.00;15.50;99.90;;;;;;5083143;28;11331;-38
2022/04/16 04:55:29;;;;;;;;;0.25;0.25;15.50;99.90;;;;;;5078909;28;11339;-38
2022/04/16 04:57:59;;;;;;;;;1.50;0.00;15.50;99.90;;;;;;5077914;28;10888;-38
2022/04/16 05:00:28;;;;;;;;;1.00;1.00;15.50;99.90;;;;;;5072993;28;10877;-39
2022/04/16 05:02:59;;;;;;;;;1.00;1.00;15.50;99.90;;;;;;5079005;28;10934;-50
2022/04/16 05:05:29;;;;;;;;;1.25;0.50;15.40;99.90;;;;;;5088532;28;10695;-49
2022/04/16 05:08:00;;;;;;;;;0.00;0.00;15.40;99.90;;;;;;5086089;28;11501;-39
2022/04/16 05:10:30;;;;;;;;;0.00;0.00;15.40;99.90;;;;;;5090709;28;10716;-38
2022/04/16 05:13:01;;;;;;;;;0.75;0.75;15.40;99.90;;;;;;5086696;28;10919;-39
2022/04/16 05:15:32;;;;;;;;;0.00;0.00;15.40;99.90;;;;;;5086922;28;10796;-39
2022/04/16 05:18:02;;;;;;;;;0.00;0.00;15.30;99.90;;;;;;5086911;28;10972;-48
2022/04/16 05:20:33;;;;;;;;;0.00;0.00;15.40;99.90;;;;;;5085909;28;10854;-47
2022/04/16 05:23:03;;;;;;;;;2.00;0.50;15.40;99.90;;;;;;5076477;28;10817;-38
2022/04/16 05:25:34;;;;;;;;;2.00;0.75;15.40;99.90;;;;;;5077640;28;10935;-37
2022/04/16 05:28:04;;;;;;;;;0.25;0.25;15.40;99.90;;;;;;5082689;28;10866;-38
2022/04/16 05:30:38;;;;;;;;;1.00;1.00;15.30;99.90;;;;;;5086806;28;10901;-39
2022/04/16 05:34:18;;;;;;;;;2.00;1.00;15.30;99.90;;;;;;5081391;28;10921;-47
2022/04/16 05:35:58;;;;;;;;;1.00;1.00;15.30;99.90;;;;;;5077401;28;10852;-49
2022/04/16 05:38:27;;;;;;;;;0.00;0.00;15.30;99.90;;;;;;5089291;28;10925;-39
2022/04/16 05:40:58;;;;;;;;;4.00;2.00;15.30;99.90;;;;;;5079119;28;10838;-38
2022/04/16 05:43:28;;;;;;;;;3.00;2.25;15.30;99.90;;;;;;5095835;28;10936;-48
2022/04/16 05:45:59;;;;;;;;;3.75;3.00;15.30;99.90;;;;;;5080336;28;10885;-50
2022/04/16 05:48:30;;;;;;;;;4.00;2.50;15.30;99.90;;;;;;5077823;28;11045;-37
2022/04/16 05:51:00;;;;;;;;;4.00;2.25;15.30;99.90;;;;;;5077061;28;11420;-38
2022/04/16 05:53:31;;;;;;;;;3.50;2.00;15.30;99.90;;;;;;5088259;28;11110;-49
2022/04/16 05:56:01;;;;;;;;;1.00;1.00;15.30;99.90;;;;;;5075227;28;10931;-49
2022/04/16 05:58:31;;;;;;;;;2.00;0.50;15.30;99.90;;;;;;5088382;28;10705;-48
2022/04/16 06:01:01;;;;;;;;;1.00;1.00;15.30;99.90;;;;;;5080925;28;10936;-48
2022/04/16 06:03:36;;;;;;;;;1.00;1.00;15.30;99.90;;;;;;5080848;28;10711;-37
2022/04/16 06:06:07;;;;;;;;;1.00;1.00;15.30;99.90;;;;;;5076058;28;11413;-39
2022/04/16 06:08:38;;;;;;;;;1.00;1.00;15.30;99.90;;;;;;5084376;28;10768;-37
2022/04/16 06:11:11;;;;;;;;;1.00;1.00;15.30;99.90;;;;;;5076352;28;10775;-39
2022/04/16 06:13:41;;;;;;;;;3.25;1.25;15.20;99.90;;;;;;5096087;28;10806;-37
2022/04/16 06:16:12;;;;;;;;;1.00;1.00;15.20;99.90;;;;;;5077001;28;10936;-37
2022/04/16 06:18:44;;;;;;;;;1.75;1.75;15.20;99.90;;;;;;5084774;28;10772;-39
2022/04/16 06:21:16;;;;;;;;;1.25;1.25;15.20;99.90;;;;;;5079857;28;11638;-39
2022/04/16 06:23:46;;;;;;;;;0.00;0.00;15.20;99.90;;;;;;5092520;28;11039;-50
2022/04/16 06:26:17;;;;;;;;;0.75;0.75;15.20;99.90;;;;;;5080968;28;11050;-49
2022/04/16 06:28:46;;;;;;;;;1.00;1.00;15.20;99.90;;;;;;5086582;28;10955;-48
2022/04/16 06:31:16;;;;;;;;;1.00;1.00;15.10;99.90;;;;;;5089865;28;10794;-51
2022/04/16 06:33:49;;;;;;;;;1.00;1.00;15.20;99.90;;;;;;5091648;28;10852;-39
2022/04/16 06:36:20;;;;;;;;;1.00;1.00;15.10;99.90;;;;;;5082962;28;10932;-38
2022/04/16 06:38:50;;;;;;;;;0.75;0.75;15.10;99.90;;;;;;5081009;28;10844;-48
2022/04/16 06:41:20;;;;;;;;;0.00;0.00;15.20;99.90;;;;;;5086188;28;10881;-48
2022/04/16 06:43:52;;;;;;;;;0.00;0.00;15.10;99.90;;;;;;5069826;28;11028;-38
2022/04/16 06:46:23;;;;;;;;;1.00;1.00;15.10;99.90;;;;;;5079105;28;11420;-38
2022/04/16 06:48:53;;;;;;;;;0.25;0.25;15.10;99.90;;;;;;5073458;28;10913;-38
2022/04/16 06:51:23;;;;;;;;;0.25;0.25;15.10;99.90;;;;;;5077456;28;10829;-38
2022/04/16 06:53:55;;;;;;;;;2.00;0.00;15.10;99.90;;;;;;5081556;28;10764;-38
2022/04/16 06:56:27;;;;;;;;;0.75;0.75;15.10;99.90;;;;;;5077577;28;10921;-39
2022/04/16 06:59:00;;;;;;;;;1.00;1.00;15.10;99.90;;;;;;5082919;28;10860;-39
2022/04/16 07:01:31;;;;;;;;;1.00;1.00;15.10;99.90;;;;;;5080747;28;11937;-38
2022/04/16 07:04:02;;;;;;;;;1.00;1.00;15.10;99.90;;;;;;5081130;28;10780;-49
2022/04/16 07:06:32;;;;;;;;;2.50;2.50;15.10;99.90;;;;;;5084667;28;10893;-51
2022/04/16 07:09:06;;;;;;;;;1.00;1.00;15.10;99.90;;;;;;5081593;28;10817;-51
2022/04/16 07:11:36;;;;;;;;;1.00;1.00;15.10;99.90;;;;;;5077844;28;11335;-50
2022/04/16 07:14:06;;;;;;;;;2.00;2.00;15.10;99.90;;;;;;5075863;28;10574;-46
2022/04/16 07:16:37;;;;;;;;;3.00;3.00;15.10;99.90;;;;;;5071027;28;10896;-50
2022/04/16 07:19:09;;;;;;;;;1.25;1.25;15.10;99.90;;;;;;5072056;28;11133;-38
2022/04/16 07:21:39;;;;;;;;;0.75;0.75;15.10;99.90;;;;;;5083276;28;10864;-38
2022/04/16 07:24:10;;;;;;;;;0.75;0.75;15.10;99.90;;;;;;5074208;28;10812;-39
2022/04/16 07:26:40;;;;;;;;;1.50;1.00;15.00;99.90;;;;;;5080849;28;10891;-37
2022/04/16 07:29:11;;;;;;;;;0.00;0.00;15.10;99.90;;;;;;5078586;28;10798;-48
2022/04/16 07:31:42;;;;;;;;;0.00;0.00;15.10;99.90;;;;;;5078698;28;10895;-48
2022/04/16 07:34:15;;;;;;;;;0.00;0.00;15.10;99.90;;;;;;5082594;28;10814;-49
2022/04/16 07:36:46;;;;;;;;;0.25;0.25;15.10;99.90;;;;;;5075809;28;10722;-51
2022/04/16 07:39:16;;;;;;;;;1.00;1.00;15.10;99.90;;;;;;5078815;28;11465;-38
2022/04/16 07:41:45;;;;;;;;;0.00;0.00;15.00;99.90;;;;;;5070146;28;10903;-39
2022/04/16 07:44:16;;;;;;;;;0.00;0.00;15.00;99.90;;;;;;5089933;28;10936;-48
2022/04/16 07:46:46;;;;;;;;;1.00;1.00;15.00;99.90;;;;;;5079088;28;10748;-48
2022/04/16 07:49:17;;;;;;;;;0.00;0.00;15.00;99.90;;;;;;5078891;28;10770;-51
2022/04/16 07:51:49;;;;;;;;;0.00;0.00;15.00;99.90;;;;;;5072343;28;10723;-51
2022/04/16 07:54:20;;;;;;;;;0.00;0.00;15.00;99.90;;;;;;5075526;28;10787;-49
2022/04/16 07:56:51;;;;;;;;;1.25;1.00;15.00;99.90;;;;;;5081222;28;10909;-49
2022/04/16 07:59:21;;;;;;;;;0.25;0.25;15.10;99.90;;;;;;5081858;28;10946;-39
2022/04/16 08:01:52;;;;;;;;;0.50;0.50;15.00;99.90;;;;;;5079638;28;10847;-39
2022/04/16 08:04:22;;;;;;;;;0.75;0.75;15.00;99.90;;;;;;5086143;28;10703;-48
2022/04/16 08:06:53;;;;;;;;;1.25;1.25;15.00;99.90;;;;;;5079018;28;10845;-47
2022/04/16 08:09:22;;;;;;;;;1.50;1.00;15.00;99.90;;;;;;5082955;28;11744;-39
2022/04/16 08:11:54;;;;;;;;;1.25;1.25;15.00;99.90;;;;;;5083640;28;10873;-38
2022/04/16 08:14:26;;;;;;;;;1.00;1.00;15.00;99.90;;;;;;5076336;28;10874;-50
2022/04/16 08:16:59;;;;;;;;;1.00;1.00;15.00;99.90;;;;;;5077280;28;10929;-50
2022/04/16 08:19:30;;;;;;;;;0.00;0.00;15.10;99.90;;;;;;5082420;28;10937;-48
2022/04/16 08:22:07;;;;;;;;;0.00;0.00;15.10;99.90;;;;;;5087415;28;10833;-49
2022/04/16 08:27:07;;;;;;;;;0.00;0.00;15.00;99.90;;;;;;5083111;28;11318;-49
2022/04/16 08:29:38;;;;;;;;;0.00;0.00;15.10;99.90;;;;;;5079450;28;10875;-38
2022/04/16 08:32:08;;;;;;;;;0.00;0.00;15.10;99.90;;;;;;5082565;28;11482;-38
2022/04/16 08:34:54;;;;;;;;;0.00;0.00;15.10;99.90;;;;;;5080695;28;10694;-39
2022/04/16 08:37:24;;;;;;;;;0.00;0.00;15.10;99.90;;;;;;5078639;28;10717;-38
2022/04/16 08:39:55;;;;;;;;;0.50;0.50;15.10;99.90;;;;;;5082189;28;10743;-47
2022/04/16 08:42:26;;;;;;;;;1.25;1.25;15.10;99.90;;;;;;5078617;28;10717;-47
2022/04/16 08:44:57;;;;;;;;;0.75;0.50;15.10;99.90;;;;;;5075034;28;10867;-48
2022/04/16 08:47:27;;;;;;;;;1.00;1.00;15.10;99.90;;;;;;5075952;28;11093;-50
2022/04/16 08:50:00;;;;;;;;;2.75;0.00;15.10;99.90;;;;;;5072738;28;10827;-47
2022/04/16 08:52:31;;;;;;;;;0.00;0.00;15.10;99.90;;;;;;5069071;28;10598;-48
2022/04/16 08:55:03;;;;;;;;;0.00;0.00;15.10;99.90;;;;;;5077320;28;10626;-47
2022/04/16 08:57:34;;;;;;;;;0.00;0.00;15.10;99.90;;;;;;5078457;28;11394;-49
2022/04/16 09:00:06;;;;;;;;;0.25;0.25;15.10;99.90;;;;;;5084033;28;10732;-48
2022/04/16 09:02:37;;;;;;;;;0.50;0.25;15.10;99.90;;;;;;5080340;28;10895;-48
2022/04/16 09:05:10;;;;;;;;;0.00;0.00;15.10;99.90;;;;;;5084323;28;10807;-51
2022/04/16 09:07:48;;;;;;;;;0.00;0.00;15.10;99.90;;;;;;5081198;28;11467;-49
2022/04/16 09:10:20;;;;;;;;;0.75;0.75;15.10;99.90;;;;;;5086325;28;10759;-37
2022/04/16 09:12:53;;;;;;;;;1.75;0.50;15.10;99.90;;;;;;5079450;28;10894;-51
2022/04/16 09:15:25;;;;;;;;;0.00;0.00;15.10;99.90;;;;;;5074287;28;10846;-47
2022/04/16 09:18:07;;;;;;;;;0.75;0.75;15.10;99.90;;;;;;5080939;28;10822;-47
2022/04/16 09:20:38;;;;;;;;;0.00;0.00;15.10;99.90;;;;;;5091474;28;10756;-49
2022/04/16 09:23:23;;;;;;;;;0.25;0.25;15.10;99.90;;;;;;5082428;28;10723;-38
2022/04/16 09:25:55;;;;;;;;;0.00;0.00;15.10;99.90;;;;;;5076031;28;10645;-38
2022/04/16 09:28:26;;;;;;;;;0.25;0.25;15.10;99.90;;;;;;5082895;28;10726;-38
2022/04/16 09:30:59;;;;;;;;;0.25;0.25;15.10;99.90;;;;;;5079742;28;10634;-38
2022/04/16 09:33:37;;;;;;;;;0.00;0.00;15.10;99.90;;;;;;5081595;28;10742;-49
2022/04/16 09:36:08;;;;;;;;;0.00;0.00;15.10;99.90;;;;;;5078534;28;10639;-49
2022/04/16 09:38:38;;;;;;;;;0.00;0.00;15.10;99.90;;;;;;5088578;28;10557;-38
2022/04/16 09:41:09;;;;;;;;;0.00;0.00;15.10;99.90;;;;;;5080126;28;10730;-37
2022/04/16 09:43:40;;;;;;;;;0.00;0.00;15.10;99.90;;;;;;5080007;28;10661;-50
2022/04/16 09:46:12;;;;;;;;;0.00;0.00;15.10;99.90;;;;;;5083488;28;11339;-48
2022/04/16 09:48:46;;;;;;;;;0.00;0.00;15.10;99.90;;;;;;5081789;28;10683;-52
2022/04/16 09:51:20;;;;;;;;;0.00;0.00;15.10;99.90;;;;;;5078520;28;10788;-48
2022/04/16 09:53:53;;;;;;;;;0.00;0.00;15.10;99.90;;;;;;5082520;28;10573;-39
2022/04/16 09:56:28;;;;;;;;;0.00;0.00;15.10;99.90;;;;;;5084408;28;10696;-39
2022/04/16 09:59:01;;;;;;;;;0.00;0.00;15.10;99.90;;;;;;5082532;28;10756;-51
2022/04/16 10:01:34;;;;;;;;;0.00;0.00;15.10;99.90;;;;;;5078159;28;10648;-49
2022/04/16 10:04:04;;;;;;;;;0.00;0.00;15.10;99.90;;;;;;5073514;28;10714;-51
2022/04/16 10:06:35;;;;;;;;;0.00;0.00;15.10;99.90;;;;;;5086599;28;10646;-49
2022/04/16 10:09:14;;;;;;;;;0.00;0.00;15.10;99.90;;;;;;5081922;28;11443;-50
2022/04/16 10:15:10;;;;;;;;;0.00;0.00;15.10;99.90;;;;;;5082539;28;10703;-52
2022/04/16 10:17:51;;;;;;;;;0.00;0.00;15.10;99.90;;;;;;5076655;28;10805;-50
2022/04/16 10:20:23;;;;;;;;;0.00;0.00;15.10;99.90;;;;;;5080474;28;10698;-39
2022/04/16 10:22:55;;;;;;;;;1.00;0.00;15.10;99.90;;;;;;5082070;28;10777;-38
2022/04/16 10:25:34;;;;;;;;;0.00;0.00;15.10;99.90;;;;;;5078631;28;10807;-38
2022/04/16 10:28:06;;;;;;;;;0.00;0.00;15.10;99.90;;;;;;5082973;28;10627;-48
2022/04/16 10:30:43;;;;;;;;;0.00;0.00;15.10;99.90;;;;;;5079847;28;11502;-51
2022/04/16 10:33:20;;;;;;;;;2.00;0.50;15.10;99.90;;;;;;5077249;28;10700;-50
2022/04/16 10:35:59;;;;;;;;;0.00;0.00;15.10;99.90;;;;;;5083333;28;10703;-48
2022/04/16 10:38:33;;;;;;;;;0.00;0.00;15.10;99.90;;;;;;5081037;28;10668;-49
2022/04/16 10:41:10;;;;;;;;;0.00;0.00;15.10;99.90;;;;;;5078905;28;10565;-48
2022/04/16 10:43:57;;;;;;;;;0.00;0.00;15.10;99.90;;;;;;5076606;28;10619;-51
2022/04/16 10:46:46;;;;;;;;;0.50;0.50;15.10;99.90;;;;;;5080147;28;10554;-48
2022/04/16 10:49:26;;;;;;;;;0.00;0.00;15.10;99.90;;;;;;5081665;28;10768;-51
2022/04/16 10:51:57;;;;;;;;;0.00;0.00;15.10;99.90;;;;;;5078333;28;10526;-50
2022/04/16 10:54:32;;;;;;;;;0.00;0.00;15.10;99.90;;;;;;5073915;28;10580;-48
2022/04/16 10:57:03;;;;;;;;;0.00;0.00;15.10;99.90;;;;;;5079061;28;10649;-52
2022/04/16 10:59:44;;;;;;;;;0.00;0.00;15.10;99.90;;;;;;5079087;28;11554;-48
2022/04/16 11:02:25;;;;;;;;;0.00;0.00;15.10;99.90;;;;;;5083398;28;11063;-50
2022/04/16 11:05:01;;;;;;;;;0.00;0.00;15.00;99.90;;;;;;5083117;28;10638;-47
2022/04/16 11:07:35;;;;;;;;;0.00;0.00;15.10;99.90;;;;;;5092467;28;11022;-48
2022/04/16 11:10:11;;;;;;;;;0.00;0.00;15.10;99.90;;;;;;5071524;28;10656;-49
2022/04/16 11:12:41;;;;;;;;;0.00;0.00;15.10;99.90;;;;;;5078751;28;10974;-48
2022/04/16 11:15:24;;;;;;;;;0.00;0.00;15.10;99.90;;;;;;5083388;28;10772;-48
2022/04/16 11:18:01;;;;;;;;;0.00;0.00;15.10;99.90;;;;;;5079790;28;11074;-47
2022/04/16 11:20:31;;;;;;;;;0.00;0.00;15.10;99.90;;;;;;5076602;28;10872;-48
2022/04/16 11:23:11;;;;;;;;;0.00;0.00;15.10;99.90;;;;;;5072897;28;10775;-39
2022/04/16 11:34:22;;;;;;;;;0.00;0.00;15.10;99.90;;;;;;5080106;28;10916;-49
2022/04/16 11:37:09;;;;;;;;;0.00;0.00;15.10;99.90;;;;;;5081398;28;10807;-48
2022/04/16 11:39:39;;;;;;;;;0.00;0.00;15.10;99.90;;;;;;5075940;28;11721;-39
2022/04/16 11:42:10;;;;;;;;;1.00;0.00;15.10;99.90;;;;;;5074121;28;10844;-39
2022/04/16 11:44:42;;;;;;;;;0.00;0.00;15.10;99.90;;;;;;5074815;28;10729;-48
2022/04/16 11:47:15;;;;;;;;;0.00;0.00;15.10;99.90;;;;;;5074100;28;11655;-50
2022/04/16 11:50:09;;;;;;;;;0.00;0.00;15.10;99.90;;;;;;5074796;28;10909;-48
2022/04/16 11:52:40;;;;;;;;;0.00;0.00;15.10;99.90;;;;;;5070960;28;10910;-48
2022/04/16 11:55:16;;;;;;;;;0.00;0.00;15.10;99.90;;;;;;5074326;28;10870;-39
2022/04/16 11:57:54;;;;;;;;;0.00;0.00;15.10;99.90;;;;;;5080531;28;10707;-40
2022/04/16 12:00:23;;;;;;;;;1.00;0.00;15.10;99.90;;;;;;5079294;28;11028;-38
2022/04/16 12:02:58;;;;;;;;;0.00;0.00;15.10;99.90;;;;;;5079895;28;10921;-51
2022/04/16 12:05:29;;;;;;;;;0.00;0.00;15.10;99.90;;;;;;5077988;28;11020;-48
2022/04/16 12:07:59;;;;;;;;;0.00;0.00;15.10;99.90;;;;;;5071821;28;11822;-38
2022/04/16 12:10:29;;;;;;;;;0.00;0.00;15.10;99.90;;;;;;5079394;28;11022;-38
2022/04/16 12:13:12;;;;;;;;;0.00;0.00;15.10;99.90;;;;;;5075729;28;11082;-50
2022/04/16 12:15:44;;;;;;;;;0.00;0.00;15.10;99.90;;;;;;5079459;28;11040;-50
2022/04/16 12:18:24;;;;;;;;;0.00;0.00;15.10;99.90;;;;;;5081045;28;11083;-39
2022/04/16 12:20:55;;;;;;;;;1.00;1.00;15.00;99.90;;;;;;5077346;28;11879;-39
2022/04/16 12:23:25;;;;;;;;;0.00;0.00;15.00;99.90;;;;;;5082470;28;11001;-39
2022/04/16 12:26:13;;;;;;;;;0.00;0.00;15.00;99.90;;;;;;5078796;28;11774;-38
2022/04/16 12:28:52;;;;;;;;;0.00;0.00;15.00;99.90;;;;;;5085677;28;11079;-38
2022/04/16 12:31:31;;;;;;;;;1.00;0.00;15.00;99.90;;;;;;5076234;28;11425;-39
2022/04/16 12:34:01;;;;;;;;;0.00;0.00;15.00;99.90;;;;;;5075662;28;10954;-48
2022/04/16 12:36:32;;;;;;;;;0.00;0.00;15.00;99.90;;;;;;5081715;28;10867;-56
2022/04/16 12:39:02;;;;;;;;;0.00;0.00;15.00;99.90;;;;;;5079864;28;11147;-50
2022/04/16 12:41:32;;;;;;;;;0.00;0.00;15.00;99.90;;;;;;5080688;28;10851;-50
2022/04/16 12:44:02;;;;;;;;;0.00;0.00;15.00;99.90;;;;;;5082655;28;10971;-50
2022/04/16 12:46:34;;;;;;;;;0.00;0.00;15.00;99.90;;;;;;5074829;28;10993;-47
2022/04/16 12:49:04;;;;;;;;;1.00;0.00;15.00;99.90;;;;;;5082913;28;11030;-37
2022/04/16 12:51:35;;;;;;;;;0.00;0.00;15.00;99.90;;;;;;5076758;28;10962;-39
2022/04/16 12:54:04;;;;;;;;;0.00;0.00;15.00;99.90;;;;;;5074375;28;10935;-39
2022/04/16 12:56:34;;;;;;;;;0.00;0.00;15.00;99.90;;;;;;5082500;28;11741;-39
2022/04/16 12:59:05;;;;;;;;;0.00;0.00;15.00;99.90;;;;;;5075693;28;10946;-39
2022/04/16 13:01:35;;;;;;;;;0.00;0.00;15.00;99.90;;;;;;5081538;28;11068;-38
2022/04/16 13:04:07;;;;;;;;;0.00;0.00;14.90;99.90;;;;;;5077291;28;11066;-38
2022/04/16 13:06:37;;;;;;;;;0.00;0.00;15.00;99.90;;;;;;5083515;28;11589;-39
2022/04/16 13:09:08;;;;;;;;;0.00;0.00;15.00;99.90;;;;;;5091719;28;11002;-38
2022/04/16 13:11:38;;;;;;;;;0.00;0.00;14.90;99.90;;;;;;5081756;28;10959;-38
2022/04/16 13:14:09;;;;;;;;;0.00;0.00;14.90;99.90;;;;;;5075790;28;11051;-39
2022/04/16 13:16:39;;;;;;;;;0.00;0.00;14.90;99.90;;;;;;5081756;28;10934;-39
2022/04/16 13:19:09;;;;;;;;;1.00;0.00;14.90;99.90;;;;;;5083589;28;11814;-48
2022/04/16 13:21:41;;;;;;;;;0.00;0.00;14.90;99.90;;;;;;5080883;28;11004;-47
2022/04/16 13:24:14;;;;;;;;;0.00;0.00;14.90;99.90;;;;;;5079463;28;11490;-50
2022/04/16 13:26:44;;;;;;;;;0.00;0.00;14.90;99.90;;;;;;5084249;28;11092;-48
2022/04/16 13:29:17;;;;;;;;;0.00;0.00;14.90;99.90;;;;;;5084946;28;11029;-39
2022/04/16 13:31:47;;;;;;;;;0.00;0.00;14.90;99.90;;;;;;5062735;28;11695;-38
2022/04/16 13:34:17;;;;;;;;;0.00;0.00;14.90;99.90;;;;;;5079562;28;11013;-48
2022/04/16 13:36:48;;;;;;;;;0.00;0.00;14.90;99.90;;;;;;5082405;28;10880;-51
2022/04/16 13:42:06;;;;;;;;;0.00;0.00;14.90;99.90;;;;;;5080482;28;10956;-50